createdAt,value
2017-11-08T00:00:43.935Z,9.29
2017-11-08T00:01:50.527Z,9.31
2017-11-08T00:02:56.288Z,9.31
2017-11-08T00:04:02.042Z,9.41
2017-11-08T00:05:07.827Z,9.40
2017-11-08T00:06:14.339Z,9.51
2017-11-08T00:07:20.081Z,9.35
2017-11-08T00:08:25.847Z,9.42
2017-11-08T00:09:31.597Z,9.55
2017-11-08T00:10:38.149Z,9.53
2017-11-08T00:11:43.913Z,9.59
2017-11-08T00:12:50.419Z,9.56
2017-11-08T00:13:56.172Z,9.59
2017-11-08T00:15:01.926Z,9.53
2017-11-08T00:16:08.651Z,9.46
2017-11-08T00:17:14.397Z,9.62
2017-11-08T00:18:20.148Z,9.66
2017-11-08T00:19:25.890Z,9.68
2017-11-08T00:20:31.640Z,9.51
2017-11-08T00:21:42.829Z,9.55
2017-11-08T00:22:50.124Z,9.62
2017-11-08T00:23:55.875Z,9.41
2017-11-08T00:25:02.385Z,9.49
2017-11-08T00:26:08.127Z,9.55
2017-11-08T00:27:13.912Z,9.52
2017-11-08T00:28:20.424Z,9.61
2017-11-08T00:29:26.177Z,9.66
2017-11-08T00:30:31.932Z,9.64
2017-11-08T00:31:38.486Z,9.52
2017-11-08T00:32:44.089Z,9.56
2017-11-08T00:33:49.846Z,9.58
2017-11-08T00:34:55.603Z,9.64
2017-11-08T00:36:01.348Z,9.62
2017-11-08T00:37:07.104Z,9.78
2017-11-08T00:38:12.884Z,9.79
2017-11-08T00:39:18.648Z,9.72
2017-11-08T00:40:24.400Z,9.63
2017-11-08T00:41:29.936Z,9.63
2017-11-08T00:42:35.696Z,9.57
2017-11-08T00:43:42.244Z,9.76
2017-11-08T00:44:47.996Z,9.67
2017-11-08T00:45:53.769Z,9.57
2017-11-08T00:47:00.281Z,9.62
2017-11-08T00:48:06.038Z,9.67
2017-11-08T00:49:11.813Z,9.74
2017-11-08T00:50:18.336Z,9.73
2017-11-08T00:51:24.091Z,9.68
2017-11-08T00:52:29.837Z,9.63
2017-11-08T00:53:38.742Z,9.66
2017-11-08T00:54:44.518Z,9.61
2017-11-08T00:55:51.028Z,9.60
2017-11-08T00:56:57.588Z,9.56
2017-11-08T00:58:03.438Z,9.60
2017-11-08T00:59:09.200Z,9.62
2017-11-08T01:00:16.820Z,9.52
2017-11-08T01:01:22.577Z,9.66
2017-11-08T01:02:28.333Z,9.60
2017-11-08T01:03:34.072Z,9.57
2017-11-08T01:04:40.097Z,9.55
2017-11-08T01:05:45.893Z,9.62
2017-11-08T01:06:51.635Z,9.69
2017-11-08T01:07:57.379Z,9.55
2017-11-08T01:09:03.139Z,9.58
2017-11-08T01:10:09.668Z,9.55
2017-11-08T01:11:16.949Z,9.49
2017-11-08T01:12:22.965Z,9.50
2017-11-08T01:13:28.720Z,9.46
2017-11-08T01:14:34.472Z,9.50
2017-11-08T01:15:40.227Z,9.48
2017-11-08T01:16:46.584Z,9.41
2017-11-08T01:17:52.125Z,9.40
2017-11-08T01:18:57.883Z,9.26
2017-11-08T01:20:04.388Z,9.30
2017-11-08T01:21:09.955Z,9.36
2017-11-08T01:22:15.740Z,9.38
2017-11-08T01:23:21.497Z,9.35
2017-11-08T01:24:27.259Z,9.23
2017-11-08T01:25:33.001Z,9.31
2017-11-08T01:26:38.801Z,9.26
2017-11-08T01:27:44.644Z,9.24
2017-11-08T01:28:50.384Z,9.17
2017-11-08T01:29:56.139Z,9.10
2017-11-08T01:31:01.916Z,9.11
2017-11-08T01:32:07.333Z,9.16
2017-11-08T01:33:13.116Z,9.18
2017-11-08T01:34:19.705Z,9.07
2017-11-08T01:35:25.457Z,9.05
2017-11-08T01:36:31.205Z,9.05
2017-11-08T01:37:41.520Z,9.07
2017-11-08T01:38:49.020Z,9.08
2017-11-08T01:39:55.940Z,9.01
2017-11-08T01:41:05.263Z,8.99
2017-11-08T01:42:10.886Z,8.98
2017-11-08T01:43:17.750Z,9.04
2017-11-08T01:44:26.237Z,9.13
2017-11-08T01:45:35.396Z,9.04
2017-11-08T01:46:42.141Z,9.10
2017-11-08T01:47:47.906Z,9.22
2017-11-08T01:48:53.678Z,9.32
2017-11-08T01:50:03.769Z,9.39
2017-11-08T01:51:14.246Z,9.33
2017-11-08T01:52:20.036Z,9.42
2017-11-08T01:53:25.788Z,9.46
2017-11-08T01:54:31.536Z,9.33
2017-11-08T01:55:39.080Z,9.35
2017-11-08T01:56:43.933Z,9.31
2017-11-08T01:57:48.805Z,9.46
2017-11-08T01:58:54.976Z,9.51
2017-11-08T02:00:00.821Z,9.55
2017-11-08T02:01:07.370Z,9.48
2017-11-08T02:02:13.881Z,9.49
2017-11-08T02:03:19.448Z,9.44
2017-11-08T02:04:25.200Z,9.45
2017-11-08T02:05:31.738Z,9.51
2017-11-08T02:06:37.527Z,9.39
2017-11-08T02:07:43.292Z,9.43
2017-11-08T02:08:49.050Z,9.50
2017-11-08T02:09:54.805Z,9.20
2017-11-08T02:11:00.565Z,9.19
2017-11-08T02:12:07.149Z,9.12
2017-11-08T02:13:12.912Z,9.16
2017-11-08T02:14:18.669Z,9.13
2017-11-08T02:15:24.236Z,9.11
2017-11-08T02:16:30.040Z,9.21
2017-11-08T02:17:41.252Z,9.22
2017-11-08T02:18:51.044Z,9.21
2017-11-08T02:19:57.360Z,9.21
2017-11-08T02:21:03.536Z,9.21
2017-11-08T02:22:09.293Z,9.38
2017-11-08T02:23:14.735Z,9.40
2017-11-08T02:24:20.145Z,9.40
2017-11-08T02:25:26.190Z,9.43
2017-11-08T02:26:36.939Z,9.44
2017-11-08T02:27:41.749Z,9.41
2017-11-08T02:28:47.960Z,9.48
2017-11-08T02:29:53.716Z,9.49
2017-11-08T02:30:59.468Z,9.53
2017-11-08T02:32:05.299Z,9.49
2017-11-08T02:33:10.356Z,9.31
2017-11-08T02:34:15.444Z,9.29
2017-11-08T02:35:20.858Z,9.22
2017-11-08T02:36:27.446Z,9.28
2017-11-08T02:37:33.214Z,9.34
2017-11-08T02:38:39.732Z,9.24
2017-11-08T02:39:45.656Z,9.23
2017-11-08T02:40:51.411Z,9.14
2017-11-08T02:41:57.166Z,9.08
2017-11-08T02:43:02.905Z,9.06
2017-11-08T02:44:08.653Z,9.14
2017-11-08T02:45:15.942Z,9.12
2017-11-08T02:46:26.604Z,9.03
2017-11-08T02:47:33.130Z,9.12
2017-11-08T02:48:38.938Z,9.05
2017-11-08T02:49:45.447Z,9.05
2017-11-08T02:50:51.257Z,9.09
2017-11-08T02:51:57.021Z,9.11
2017-11-08T02:53:02.775Z,9.07
2017-11-08T02:54:09.010Z,9.05
2017-11-08T02:55:14.758Z,9.10
2017-11-08T02:56:20.539Z,9.05
2017-11-08T02:57:27.068Z,9.27
2017-11-08T02:58:33.581Z,9.21
2017-11-08T02:59:41.133Z,9.31
2017-11-08T03:00:47.659Z,9.38
2017-11-08T03:01:53.433Z,9.31
2017-11-08T03:03:02.366Z,9.33
2017-11-08T03:04:08.131Z,9.34
2017-11-08T03:05:18.569Z,9.34
2017-11-08T03:06:24.331Z,9.32
2017-11-08T03:07:30.120Z,9.36
2017-11-08T03:08:36.650Z,9.36
2017-11-08T03:09:42.401Z,9.28
2017-11-08T03:10:48.152Z,9.34
2017-11-08T03:11:53.918Z,9.27
2017-11-08T03:13:00.468Z,9.28
2017-11-08T03:14:06.233Z,9.33
2017-11-08T03:15:11.982Z,9.27
2017-11-08T03:16:18.291Z,9.42
2017-11-08T03:17:24.140Z,9.37
2017-11-08T03:18:29.993Z,9.32
2017-11-08T03:19:35.800Z,9.35
2017-11-08T03:20:41.544Z,9.38
2017-11-08T03:21:47.297Z,9.53
2017-11-08T03:22:53.057Z,9.42
2017-11-08T03:23:59.609Z,9.53
2017-11-08T03:25:05.168Z,9.51
2017-11-08T03:26:11.684Z,9.39
2017-11-08T03:27:17.435Z,9.30
2017-11-08T03:28:23.201Z,9.32
2017-11-08T03:29:29.741Z,9.39
2017-11-08T03:30:35.508Z,9.40
2017-11-08T03:31:42.045Z,9.42
2017-11-08T03:32:47.806Z,9.38
2017-11-08T03:33:54.324Z,9.29
2017-11-08T03:35:00.100Z,9.36
2017-11-08T03:36:05.942Z,9.31
2017-11-08T03:37:11.352Z,9.26
2017-11-08T03:38:17.125Z,9.26
2017-11-08T03:39:23.653Z,9.25
2017-11-08T03:40:29.437Z,9.22
2017-11-08T03:41:35.200Z,9.20
2017-11-08T03:42:40.961Z,9.13
2017-11-08T03:43:46.717Z,9.20
2017-11-08T03:44:52.466Z,9.26
2017-11-08T03:45:58.245Z,9.39
2017-11-08T03:47:03.998Z,9.33
2017-11-08T03:48:09.738Z,9.30
2017-11-08T03:49:15.481Z,9.34
2017-11-08T03:50:21.246Z,9.26
2017-11-08T03:51:27.020Z,9.24
2017-11-08T03:52:32.773Z,9.25
2017-11-08T03:53:39.301Z,9.14
2017-11-08T03:54:45.049Z,9.03
2017-11-08T03:55:50.795Z,9.12
2017-11-08T03:56:56.580Z,9.23
2017-11-08T03:58:03.096Z,9.33
2017-11-08T03:59:08.845Z,9.34
2017-11-08T04:00:14.604Z,9.27
2017-11-08T04:01:21.120Z,9.21
2017-11-08T04:02:27.356Z,9.23
2017-11-08T04:03:33.104Z,9.19
2017-11-08T04:04:38.852Z,9.22
2017-11-08T04:05:44.618Z,9.18
2017-11-08T04:06:50.371Z,9.11
2017-11-08T04:07:56.152Z,9.10
2017-11-08T04:09:01.917Z,9.05
2017-11-08T04:10:07.461Z,9.09
2017-11-08T04:11:13.220Z,9.04
2017-11-08T04:12:18.980Z,9.07
2017-11-08T04:13:24.583Z,9.19
2017-11-08T04:14:30.318Z,9.18
2017-11-08T04:15:36.080Z,9.19
2017-11-08T04:16:41.493Z,9.17
2017-11-08T04:17:47.052Z,9.09
2017-11-08T04:18:52.847Z,9.01
2017-11-08T04:19:58.417Z,9.15
2017-11-08T04:21:04.177Z,9.23
2017-11-08T04:22:09.921Z,9.15
2017-11-08T04:23:15.690Z,9.08
2017-11-08T04:24:21.876Z,9.03
2017-11-08T04:25:27.280Z,9.07
2017-11-08T04:26:33.808Z,9.08
2017-11-08T04:27:39.556Z,9.21
2017-11-08T04:28:45.319Z,9.19
2017-11-08T04:29:51.091Z,9.13
2017-11-08T04:30:56.843Z,9.11
2017-11-08T04:32:02.588Z,9.15
2017-11-08T04:33:08.345Z,9.17
2017-11-08T04:34:14.093Z,9.26
2017-11-08T04:35:19.882Z,9.25
2017-11-08T04:36:25.648Z,9.21
2017-11-08T04:37:31.396Z,9.14
2017-11-08T04:38:37.410Z,9.13
2017-11-08T04:39:43.165Z,9.11
2017-11-08T04:40:48.936Z,9.03
2017-11-08T04:41:54.685Z,9.03
2017-11-08T04:43:00.429Z,8.99
2017-11-08T04:44:06.172Z,9.04
2017-11-08T04:45:11.247Z,9.00
2017-11-08T04:46:16.599Z,9.05
2017-11-08T04:47:22.353Z,9.02
2017-11-08T04:48:28.113Z,9.01
2017-11-08T04:49:33.868Z,9.03
2017-11-08T04:50:39.628Z,9.03
2017-11-08T04:51:46.180Z,9.02
2017-11-08T04:52:52.701Z,9.00
2017-11-08T04:53:58.268Z,9.00
2017-11-08T04:55:03.848Z,8.90
2017-11-08T04:56:09.586Z,8.78
2017-11-08T04:57:15.180Z,8.89
2017-11-08T04:58:20.939Z,8.91
2017-11-08T04:59:27.455Z,8.93
2017-11-08T05:00:33.212Z,8.99
2017-11-08T05:01:38.978Z,9.00
2017-11-08T05:02:45.531Z,9.08
2017-11-08T05:03:52.041Z,9.12
2017-11-08T05:04:57.791Z,9.11
2017-11-08T05:06:03.542Z,8.99
2017-11-08T05:07:09.296Z,8.95
2017-11-08T05:08:15.089Z,8.98
2017-11-08T05:09:20.842Z,8.91
2017-11-08T05:10:26.586Z,8.92
2017-11-08T05:11:32.336Z,8.88
2017-11-08T05:12:38.098Z,8.92
2017-11-08T05:13:43.886Z,8.99
2017-11-08T05:14:50.393Z,9.12
2017-11-08T05:15:56.165Z,9.13
2017-11-08T05:17:01.913Z,9.21
2017-11-08T05:18:07.665Z,9.29
2017-11-08T05:19:14.210Z,9.33
2017-11-08T05:20:19.953Z,9.37
2017-11-08T05:21:26.474Z,9.39
2017-11-08T05:22:32.241Z,9.42
2017-11-08T05:23:39.515Z,9.42
2017-11-08T05:24:46.057Z,9.35
2017-11-08T05:25:51.801Z,9.32
2017-11-08T05:26:57.545Z,9.38
2017-11-08T05:28:03.382Z,9.38
2017-11-08T05:29:09.135Z,9.35
2017-11-08T05:30:14.906Z,9.31
2017-11-08T05:31:21.220Z,9.28
2017-11-08T05:32:26.974Z,9.27
2017-11-08T05:33:33.485Z,9.34
2017-11-08T05:34:39.234Z,9.41
2017-11-08T05:35:45.014Z,9.41
2017-11-08T05:36:50.776Z,9.49
2017-11-08T05:37:57.303Z,9.38
2017-11-08T05:39:03.057Z,9.35
2017-11-08T05:40:08.800Z,9.43
2017-11-08T05:41:14.577Z,9.38
2017-11-08T05:42:21.087Z,9.38
2017-11-08T05:43:26.845Z,9.39
2017-11-08T05:44:32.592Z,9.37
2017-11-08T05:45:39.845Z,9.36
2017-11-08T05:46:45.629Z,9.44
2017-11-08T05:47:51.964Z,9.43
2017-11-08T05:48:59.258Z,9.44
2017-11-08T05:50:05.776Z,9.46
2017-11-08T05:51:11.524Z,9.51
2017-11-08T05:52:17.325Z,9.51
2017-11-08T05:53:22.893Z,9.51
2017-11-08T05:54:28.644Z,9.48
2017-11-08T05:55:34.409Z,9.55
2017-11-08T05:56:40.161Z,9.51
2017-11-08T05:57:46.706Z,9.48
2017-11-08T05:58:53.960Z,9.59
2017-11-08T05:59:59.724Z,9.57
2017-11-08T06:01:05.468Z,9.56
2017-11-08T06:02:11.329Z,9.60
2017-11-08T06:03:17.881Z,9.57
2017-11-08T06:04:24.398Z,9.49
2017-11-08T06:05:30.149Z,9.55
2017-11-08T06:06:35.956Z,9.49
2017-11-08T06:07:41.713Z,9.44
2017-11-08T06:08:47.493Z,9.43
2017-11-08T06:09:53.240Z,9.38
2017-11-08T06:10:58.996Z,9.35
2017-11-08T06:12:05.521Z,9.36
2017-11-08T06:13:11.376Z,9.36
2017-11-08T06:14:17.156Z,9.36
2017-11-08T06:15:22.920Z,9.38
2017-11-08T06:16:28.698Z,9.48
2017-11-08T06:17:34.456Z,9.49
2017-11-08T06:18:40.981Z,9.49
2017-11-08T06:19:46.794Z,9.48
2017-11-08T06:20:52.535Z,9.49
2017-11-08T06:21:58.301Z,9.49
2017-11-08T06:23:04.063Z,9.49
2017-11-08T06:24:09.830Z,9.51
2017-11-08T06:25:16.384Z,9.56
2017-11-08T06:26:21.953Z,9.55
2017-11-08T06:27:27.976Z,9.57
2017-11-08T06:28:34.674Z,9.48
2017-11-08T06:29:40.760Z,9.53
2017-11-08T06:30:46.803Z,9.56
2017-11-08T06:31:52.936Z,9.58
2017-11-08T06:32:58.865Z,9.62
2017-11-08T06:34:05.062Z,9.57
2017-11-08T06:35:11.478Z,9.53
2017-11-08T06:36:17.300Z,9.52
2017-11-08T06:37:23.147Z,9.53
2017-11-08T06:38:29.774Z,9.54
2017-11-08T06:39:35.532Z,9.56
2017-11-08T06:40:42.059Z,9.62
2017-11-08T06:41:48.645Z,9.66
2017-11-08T06:42:54.405Z,9.70
2017-11-08T06:44:00.936Z,9.59
2017-11-08T06:45:07.457Z,9.65
2017-11-08T06:46:13.254Z,9.56
2017-11-08T06:47:19.872Z,9.61
2017-11-08T06:48:25.622Z,9.59
2017-11-08T06:49:31.381Z,9.64
2017-11-08T06:50:38.057Z,9.65
2017-11-08T06:51:47.613Z,9.60
2017-11-08T06:52:53.005Z,9.65
2017-11-08T06:53:59.528Z,9.66
2017-11-08T06:55:05.082Z,9.69
2017-11-08T06:56:10.834Z,9.61
2017-11-08T06:57:22.523Z,9.63
2017-11-08T06:58:28.347Z,9.58
2017-11-08T06:59:34.102Z,9.66
2017-11-08T07:00:39.859Z,9.67
2017-11-08T07:01:45.632Z,9.70
2017-11-08T07:02:51.388Z,9.78
2017-11-08T07:03:56.992Z,9.76
2017-11-08T07:05:03.515Z,9.76
2017-11-08T07:06:09.269Z,9.78
2017-11-08T07:07:15.020Z,9.80
2017-11-08T07:08:20.778Z,9.86
2017-11-08T07:09:27.313Z,9.80
2017-11-08T07:10:33.069Z,9.72
2017-11-08T07:11:39.649Z,9.75
2017-11-08T07:12:46.172Z,9.83
2017-11-08T07:13:51.928Z,9.76
2017-11-08T07:14:57.709Z,9.73
2017-11-08T07:16:03.462Z,9.85
2017-11-08T07:17:10.152Z,9.84
2017-11-08T07:18:16.331Z,9.94
2017-11-08T07:19:22.409Z,9.96
2017-11-08T07:20:28.255Z,9.99
2017-11-08T07:21:33.844Z,10.00
2017-11-08T07:22:39.600Z,10.02
2017-11-08T07:23:46.116Z,10.01
2017-11-08T07:24:51.881Z,10.01
2017-11-08T07:25:57.676Z,10.06
2017-11-08T07:27:03.423Z,10.00
2017-11-08T07:28:09.184Z,10.06
2017-11-08T07:29:14.940Z,10.08
2017-11-08T07:30:21.477Z,10.02
2017-11-08T07:31:27.269Z,9.88
2017-11-08T07:32:33.804Z,9.89
2017-11-08T07:33:39.346Z,9.88
2017-11-08T07:34:45.148Z,9.91
2017-11-08T07:35:50.894Z,9.96
2017-11-08T07:36:56.664Z,9.95
2017-11-08T07:38:02.421Z,9.95
2017-11-08T07:39:08.177Z,9.96
2017-11-08T07:40:14.236Z,9.88
2017-11-08T07:41:20.754Z,9.88
2017-11-08T07:42:26.337Z,9.86
2017-11-08T07:43:32.862Z,9.82
2017-11-08T07:44:38.631Z,9.81
2017-11-08T07:45:45.141Z,9.71
2017-11-08T07:46:50.924Z,9.72
2017-11-08T07:47:57.470Z,9.73
2017-11-08T07:49:03.208Z,9.72
2017-11-08T07:50:08.959Z,9.63
2017-11-08T07:51:15.489Z,9.74
2017-11-08T07:52:21.243Z,9.87
2017-11-08T07:53:27.050Z,9.96
2017-11-08T07:54:34.622Z,10.00
2017-11-08T07:55:46.376Z,9.89
2017-11-08T07:56:56.852Z,9.99
2017-11-08T07:58:05.340Z,9.86
2017-11-08T07:59:11.889Z,9.97
2017-11-08T08:00:18.668Z,10.07
2017-11-08T08:01:23.552Z,10.12
2017-11-08T08:02:29.312Z,10.09
2017-11-08T08:03:34.869Z,10.04
2017-11-08T08:04:41.424Z,9.93
2017-11-08T08:05:47.946Z,9.81
2017-11-08T08:06:53.700Z,9.79
2017-11-08T08:07:59.465Z,9.77
2017-11-08T08:09:05.044Z,9.57
2017-11-08T08:10:10.847Z,9.59
2017-11-08T08:11:20.468Z,9.60
2017-11-08T08:12:26.991Z,9.67
2017-11-08T08:13:32.749Z,9.61
2017-11-08T08:14:38.502Z,9.58
2017-11-08T08:15:45.805Z,9.54
2017-11-08T08:16:52.325Z,9.49
2017-11-08T08:17:58.092Z,9.59
2017-11-08T08:19:03.847Z,9.68
2017-11-08T08:20:10.356Z,9.67
2017-11-08T08:21:16.144Z,9.78
2017-11-08T08:22:22.651Z,9.81
2017-11-08T08:23:28.400Z,9.94
2017-11-08T08:24:34.169Z,10.07
2017-11-08T08:25:39.943Z,10.11
2017-11-08T08:26:51.073Z,10.13
2017-11-08T08:27:56.680Z,9.98
2017-11-08T08:29:02.427Z,9.88
2017-11-08T08:30:08.193Z,9.81
2017-11-08T08:31:13.956Z,9.92
2017-11-08T08:32:20.513Z,9.79
2017-11-08T08:33:27.033Z,9.87
2017-11-08T08:34:32.621Z,9.87
2017-11-08T08:35:39.128Z,9.86
2017-11-08T08:36:44.897Z,9.85
2017-11-08T08:37:50.690Z,9.78
2017-11-08T08:38:56.457Z,9.86
2017-11-08T08:40:01.870Z,9.91
2017-11-08T08:41:07.485Z,9.82
2017-11-08T08:42:13.272Z,9.74
2017-11-08T08:43:19.062Z,9.63
2017-11-08T08:44:25.582Z,9.54
2017-11-08T08:45:31.333Z,9.61
2017-11-08T08:46:37.085Z,9.74
2017-11-08T08:47:42.820Z,9.89
2017-11-08T08:48:51.622Z,9.98
2017-11-08T08:49:57.372Z,10.09
2017-11-08T08:51:03.121Z,10.12
2017-11-08T08:52:08.881Z,10.14
2017-11-08T08:53:14.653Z,10.21
2017-11-08T08:54:20.430Z,10.25
2017-11-08T08:55:26.224Z,10.20
2017-11-08T08:56:31.988Z,10.20
2017-11-08T08:57:37.541Z,10.13
2017-11-08T08:58:43.349Z,10.11
2017-11-08T08:59:49.136Z,10.04
2017-11-08T09:00:54.925Z,10.11
2017-11-08T09:02:00.684Z,10.11
2017-11-08T09:03:06.454Z,10.10
2017-11-08T09:04:12.212Z,10.15
2017-11-08T09:05:18.009Z,10.17
2017-11-08T09:06:22.884Z,10.23
2017-11-08T09:07:28.670Z,10.25
2017-11-08T09:08:34.425Z,10.20
2017-11-08T09:09:40.184Z,10.15
2017-11-08T09:10:45.972Z,10.10
2017-11-08T09:11:51.730Z,9.96
2017-11-08T09:12:57.483Z,10.09
2017-11-08T09:14:03.250Z,10.11
2017-11-08T09:15:09.013Z,10.12
2017-11-08T09:16:14.616Z,10.17
2017-11-08T09:17:20.380Z,10.27
2017-11-08T09:18:26.131Z,10.30
2017-11-08T09:19:33.664Z,10.34
2017-11-08T09:20:39.424Z,10.33
2017-11-08T09:21:44.692Z,10.40
2017-11-08T09:22:51.225Z,10.41
2017-11-08T09:23:59.995Z,10.36
2017-11-08T09:25:05.433Z,10.35
2017-11-08T09:26:10.650Z,10.32
2017-11-08T09:27:16.441Z,10.47
2017-11-08T09:28:22.220Z,10.45
2017-11-08T09:29:29.574Z,10.44
2017-11-08T09:30:34.787Z,10.39
2017-11-08T09:31:40.542Z,10.35
2017-11-08T09:32:46.321Z,10.43
2017-11-08T09:33:52.181Z,10.49
2017-11-08T09:35:00.560Z,10.51
2017-11-08T09:36:07.148Z,10.50
2017-11-08T09:37:12.896Z,10.44
2017-11-08T09:38:18.705Z,10.53
2017-11-08T09:39:25.053Z,10.56
2017-11-08T09:40:31.381Z,10.67
2017-11-08T09:41:37.143Z,10.68
2017-11-08T09:42:42.692Z,10.60
2017-11-08T09:43:49.250Z,10.53
2017-11-08T09:44:55.768Z,10.63
2017-11-08T09:46:01.544Z,10.60
2017-11-08T09:47:08.936Z,10.54
2017-11-08T09:48:15.476Z,10.59
2017-11-08T09:49:21.264Z,10.65
2017-11-08T09:50:26.434Z,10.64
2017-11-08T09:51:32.197Z,10.56
2017-11-08T09:52:42.499Z,10.63
2017-11-08T09:53:48.268Z,10.66
2017-11-08T09:54:54.070Z,10.68
2017-11-08T09:55:59.886Z,10.65
2017-11-08T09:57:11.797Z,10.54
2017-11-08T09:58:17.792Z,10.55
2017-11-08T09:59:25.388Z,10.50
2017-11-08T10:00:31.941Z,10.49
2017-11-08T10:01:42.806Z,10.43
2017-11-08T10:02:48.573Z,10.44
2017-11-08T10:03:55.099Z,10.49
2017-11-08T10:05:00.848Z,10.55
2017-11-08T10:06:06.762Z,10.49
2017-11-08T10:07:12.768Z,10.55
2017-11-08T10:08:18.532Z,10.57
2017-11-08T10:09:30.021Z,10.75
2017-11-08T10:10:35.812Z,10.73
2017-11-08T10:11:47.274Z,10.71
2017-11-08T10:12:58.480Z,10.79
2017-11-08T10:14:04.260Z,10.82
2017-11-08T10:15:10.023Z,10.88
2017-11-08T10:16:19.599Z,10.94
2017-11-08T10:17:25.389Z,11.05
2017-11-08T10:18:31.153Z,11.09
2017-11-08T10:19:37.482Z,11.09
2017-11-08T10:20:43.080Z,11.08
2017-11-08T10:21:50.639Z,11.15
2017-11-08T10:23:00.949Z,11.15
2017-11-08T10:24:06.721Z,11.17
2017-11-08T10:25:13.309Z,11.31
2017-11-08T10:26:19.558Z,11.32
2017-11-08T10:27:26.109Z,11.31
2017-11-08T10:28:31.910Z,11.39
2017-11-08T10:29:37.669Z,11.40
2017-11-08T10:30:44.201Z,11.38
2017-11-08T10:31:49.770Z,11.35
2017-11-08T10:32:56.294Z,11.41
2017-11-08T10:34:02.094Z,11.41
2017-11-08T10:35:07.853Z,11.54
2017-11-08T10:36:12.680Z,11.70
2017-11-08T10:37:18.444Z,11.80
2017-11-08T10:38:24.283Z,12.02
2017-11-08T10:39:30.270Z,12.12
2017-11-08T10:40:36.795Z,12.12
2017-11-08T10:41:42.553Z,12.15
2017-11-08T10:42:48.349Z,12.16
2017-11-08T10:43:54.110Z,12.25
2017-11-08T10:44:59.895Z,12.23
2017-11-08T10:46:05.313Z,12.07
2017-11-08T10:47:11.091Z,12.13
2017-11-08T10:48:16.857Z,12.15
2017-11-08T10:49:22.625Z,12.30
2017-11-08T10:50:29.184Z,12.44
2017-11-08T10:51:35.370Z,12.51
2017-11-08T10:52:41.271Z,12.58
2017-11-08T10:53:52.753Z,12.50
2017-11-08T10:54:59.165Z,12.54
2017-11-08T10:56:04.985Z,12.64
2017-11-08T10:57:10.741Z,12.71
2017-11-08T10:58:23.178Z,12.77
2017-11-08T10:59:28.250Z,12.66
2017-11-08T11:00:33.140Z,12.73
2017-11-08T11:01:39.389Z,12.65
2017-11-08T11:02:45.977Z,12.67
2017-11-08T11:03:52.329Z,12.44
2017-11-08T11:04:58.095Z,12.44
2017-11-08T11:06:03.517Z,12.41
2017-11-08T11:07:09.311Z,12.29
2017-11-08T11:08:15.087Z,12.31
2017-11-08T11:09:23.463Z,12.23
2017-11-08T11:10:28.883Z,12.15
2017-11-08T11:11:33.959Z,12.19
2017-11-08T11:12:39.740Z,12.17
2017-11-08T11:13:48.477Z,12.34
2017-11-08T11:14:54.326Z,12.31
2017-11-08T11:16:00.509Z,12.29
2017-11-08T11:17:05.578Z,12.27
2017-11-08T11:18:11.025Z,12.24
2017-11-08T11:19:21.512Z,12.28
2017-11-08T11:20:28.325Z,12.18
2017-11-08T11:21:39.922Z,12.21
2017-11-08T11:22:45.398Z,12.17
2017-11-08T11:23:50.517Z,12.23
2017-11-08T11:24:56.374Z,12.21
2017-11-08T11:26:02.156Z,12.28
2017-11-08T11:27:13.237Z,12.30
2017-11-08T11:28:18.317Z,12.31
2017-11-08T11:29:23.765Z,12.27
2017-11-08T11:30:28.840Z,12.31
2017-11-08T11:31:34.622Z,12.32
2017-11-08T11:32:44.235Z,12.41
2017-11-08T11:33:49.644Z,12.42
2017-11-08T11:34:55.505Z,12.47
2017-11-08T11:36:00.596Z,12.47
2017-11-08T11:37:07.198Z,12.52
2017-11-08T11:38:12.630Z,12.53
2017-11-08T11:39:17.702Z,12.65
2017-11-08T11:40:22.803Z,12.76
2017-11-08T11:41:28.025Z,12.84
2017-11-08T11:42:33.097Z,12.73
2017-11-08T11:43:45.450Z,12.81
2017-11-08T11:44:50.519Z,12.79
2017-11-08T11:45:55.698Z,12.61
2017-11-08T11:47:01.473Z,12.56
2017-11-08T11:48:12.209Z,12.65
2017-11-08T11:49:17.278Z,12.65
2017-11-08T11:50:23.033Z,12.71
2017-11-08T11:51:33.193Z,12.78
2017-11-08T11:52:39.721Z,12.88
2017-11-08T11:53:45.495Z,12.83
2017-11-08T11:54:52.011Z,12.92
2017-11-08T11:55:57.769Z,12.89
2017-11-08T11:57:03.222Z,12.93
2017-11-08T11:58:09.108Z,12.96
2017-11-08T11:59:15.973Z,12.88
2017-11-08T12:00:21.134Z,12.85
2017-11-08T12:01:25.947Z,12.88
2017-11-08T12:02:30.892Z,12.91
2017-11-08T12:03:36.026Z,12.94
2017-11-08T12:04:41.718Z,13.02
2017-11-08T12:05:46.622Z,13.01
2017-11-08T12:06:51.438Z,13.03
2017-11-08T12:07:56.294Z,13.01
2017-11-08T12:09:01.343Z,12.88
2017-11-08T12:10:09.396Z,12.82
2017-11-08T12:11:14.343Z,12.68
2017-11-08T12:12:19.424Z,12.52
2017-11-08T12:13:24.526Z,12.54
2017-11-08T12:14:30.714Z,12.47
2017-11-08T12:15:35.942Z,12.41
2017-11-08T12:16:41.369Z,12.42
2017-11-08T12:17:46.804Z,12.36
2017-11-08T12:19:57.305Z,12.34
2017-11-08T12:21:02.722Z,12.30
2017-11-08T12:22:07.791Z,12.34
2017-11-08T12:23:13.622Z,12.29
2017-11-08T12:24:19.249Z,12.25
2017-11-08T12:25:24.326Z,12.33
2017-11-08T12:26:31.422Z,12.42
2017-11-08T12:27:36.535Z,12.39
2017-11-08T12:28:45.737Z,12.48
2017-11-08T12:29:50.844Z,12.57
2017-11-08T12:30:56.610Z,12.55
2017-11-08T12:32:02.026Z,12.45
2017-11-08T12:33:08.211Z,12.54
2017-11-08T12:34:13.339Z,12.68
2017-11-08T12:35:18.778Z,12.79
2017-11-08T12:36:24.302Z,12.83
2017-11-08T12:37:29.364Z,12.74
2017-11-08T12:38:40.624Z,12.89
2017-11-08T12:39:51.814Z,12.93
2017-11-08T12:40:56.911Z,12.95
2017-11-08T12:42:04.674Z,13.05
2017-11-08T12:43:09.762Z,13.12
2017-11-08T12:44:14.827Z,13.23
2017-11-08T12:45:19.898Z,13.29
2017-11-08T12:46:25.085Z,13.38
2017-11-08T12:47:30.870Z,13.46
2017-11-08T12:48:35.947Z,13.49
2017-11-08T12:49:41.716Z,13.53
2017-11-08T12:50:46.777Z,13.46
2017-11-08T12:51:52.216Z,13.48
2017-11-08T12:52:57.272Z,13.49
2017-11-08T12:54:02.158Z,13.46
2017-11-08T12:55:07.574Z,13.38
2017-11-08T12:56:12.453Z,13.15
2017-11-08T12:57:17.564Z,13.10
2017-11-08T12:58:23.398Z,13.10
2017-11-08T12:59:29.578Z,13.05
2017-11-08T13:00:34.462Z,13.03
2017-11-08T13:01:40.053Z,12.98
2017-11-08T13:02:47.123Z,13.00
2017-11-08T13:03:52.569Z,13.05
2017-11-08T13:04:57.481Z,12.95
2017-11-08T13:06:03.574Z,12.96
2017-11-08T13:07:09.405Z,13.04
2017-11-08T13:08:15.384Z,12.96
2017-11-08T13:09:21.222Z,13.23
2017-11-08T13:10:26.890Z,13.17
2017-11-08T13:11:36.166Z,12.94
2017-11-08T13:12:41.656Z,12.99
2017-11-08T13:13:46.757Z,13.05
2017-11-08T13:14:53.028Z,13.21
2017-11-08T13:15:58.449Z,13.22
2017-11-08T13:17:03.524Z,13.36
2017-11-08T13:18:08.945Z,13.30
2017-11-08T13:19:14.394Z,13.21
2017-11-08T13:20:19.462Z,13.16
2017-11-08T13:21:25.305Z,13.16
2017-11-08T13:22:31.580Z,13.07
2017-11-08T13:23:37.004Z,13.05
2017-11-08T13:24:43.004Z,13.11
2017-11-08T13:25:48.417Z,13.17
2017-11-08T13:26:54.130Z,13.20
2017-11-08T13:27:59.559Z,13.22
2017-11-08T13:29:04.385Z,13.27
2017-11-08T13:30:09.515Z,13.31
2017-11-08T13:31:14.926Z,13.33
2017-11-08T13:32:20.781Z,13.41
2017-11-08T13:33:27.303Z,13.40
2017-11-08T13:34:32.583Z,13.40
2017-11-08T13:35:37.690Z,13.28
2017-11-08T13:36:42.769Z,13.26
2017-11-08T13:37:48.201Z,13.18
2017-11-08T13:38:53.269Z,13.06
2017-11-08T13:39:59.485Z,13.03
2017-11-08T13:41:07.490Z,12.75
2017-11-08T13:42:12.910Z,12.73
2017-11-08T13:43:17.980Z,12.58
2017-11-08T13:44:23.824Z,12.53
2017-11-08T13:45:30.025Z,12.60
2017-11-08T13:46:35.117Z,12.66
2017-11-08T13:47:39.981Z,12.67
2017-11-08T13:48:45.404Z,12.59
2017-11-08T13:49:50.499Z,12.45
2017-11-08T13:50:55.909Z,12.47
2017-11-08T13:52:02.469Z,12.37
2017-11-08T13:53:09.114Z,12.45
2017-11-08T13:54:14.026Z,12.46
2017-11-08T13:55:19.463Z,12.51
2017-11-08T13:56:26.145Z,12.37
2017-11-08T13:57:31.934Z,12.39
2017-11-08T13:58:37.700Z,12.32
2017-11-08T13:59:42.785Z,12.31
2017-11-08T14:00:48.567Z,12.19
2017-11-08T14:01:53.680Z,12.08
2017-11-08T14:02:58.820Z,12.08
2017-11-08T14:04:06.987Z,11.88
2017-11-08T14:05:13.104Z,11.87
2017-11-08T14:07:27.973Z,11.87
2017-11-08T14:08:33.830Z,11.81
2017-11-08T14:09:39.604Z,11.83
2017-11-08T14:10:44.673Z,11.67
2017-11-08T14:11:51.263Z,11.72
2017-11-08T14:12:57.020Z,11.62
2017-11-08T14:14:02.831Z,11.59
2017-11-08T14:15:09.352Z,11.63
2017-11-08T14:16:15.153Z,11.65
2017-11-08T14:17:20.925Z,11.64
2017-11-08T14:18:26.679Z,11.63
2017-11-08T14:19:32.461Z,11.72
2017-11-08T14:20:38.230Z,11.72
2017-11-08T14:21:44.000Z,11.70
2017-11-08T14:22:49.765Z,11.75
2017-11-08T14:23:55.526Z,11.70
2017-11-08T14:25:02.076Z,11.49
2017-11-08T14:26:08.601Z,11.52
2017-11-08T14:27:14.461Z,11.39
2017-11-08T14:28:20.233Z,11.42
2017-11-08T14:29:26.765Z,11.40
2017-11-08T14:30:34.143Z,11.35